sensor_id;sensor_type;location;lat;lon;timestamp;temperature;humidity
10046;DHT22;5063;50.878;4.742;2023-07-20T00:00:29;15.20;99.90
10046;DHT22;5063;50.878;4.742;2023-07-20T00:03:10;15.20;99.90
10046;DHT22;5063;50.878;4.742;2023-07-20T00:05:37;15.30;99.90
10046;DHT22;5063;50.878;4.742;2023-07-20T00:08:02;15.40;99.90
10046;DHT22;5063;50.878;4.742;2023-07-20T00:10:28;15.40;99.90
10046;DHT22;5063;50.878;4.742;2023-07-20T00:12:54;15.50;99.90
10046;DHT22;5063;50.878;4.742;2023-07-20T00:15:20;15.50;99.90
10046;DHT22;5063;50.878;4.742;2023-07-20T00:17:45;15.50;99.90
10046;DHT22;5063;50.878;4.742;2023-07-20T00:20:11;15.50;99.90
10046;DHT22;5063;50.878;4.742;2023-07-20T00:22:37;15.50;99.90
10046;DHT22;5063;50.878;4.742;2023-07-20T00:25:03;15.50;99.90
10046;DHT22;5063;50.878;4.742;2023-07-20T00:27:29;15.50;99.90
10046;DHT22;5063;50.878;4.742;2023-07-20T00:29:54;15.60;99.90
10046;DHT22;5063;50.878;4.742;2023-07-20T00:32:20;15.60;99.90
10046;DHT22;5063;50.878;4.742;2023-07-20T00:34:46;15.60;99.90
10046;DHT22;5063;50.878;4.742;2023-07-20T00:37:12;15.60;99.90
10046;DHT22;5063;50.878;4.742;2023-07-20T00:39:38;15.70;99.90
10046;DHT22;5063;50.878;4.742;2023-07-20T00:42:04;15.70;99.90
10046;DHT22;5063;50.878;4.742;2023-07-20T00:44:30;15.80;99.90
10046;DHT22;5063;50.878;4.742;2023-07-20T00:46:56;15.80;99.90
10046;DHT22;5063;50.878;4.742;2023-07-20T00:49:22;15.80;99.90
10046;DHT22;5063;50.878;4.742;2023-07-20T00:51:49;15.90;99.90
10046;DHT22;5063;50.878;4.742;2023-07-20T00:54:16;15.80;99.90
10046;DHT22;5063;50.878;4.742;2023-07-20T00:56:42;15.90;99.90
10046;DHT22;5063;50.878;4.742;2023-07-20T00:59:09;15.90;99.90
10046;DHT22;5063;50.878;4.742;2023-07-20T01:01:35;15.90;99.90
10046;DHT22;5063;50.878;4.742;2023-07-20T01:04:01;15.90;99.90
10046;DHT22;5063;50.878;4.742;2023-07-20T01:09:18;15.90;99.90
10046;DHT22;5063;50.878;4.742;2023-07-20T01:12:05;15.90;99.90
10046;DHT22;5063;50.878;4.742;2023-07-20T01:14:31;15.90;99.90
10046;DHT22;5063;50.878;4.742;2023-07-20T01:16:58;15.90;99.90
10046;DHT22;5063;50.878;4.742;2023-07-20T01:19:24;15.90;99.90
10046;DHT22;5063;50.878;4.742;2023-07-20T01:21:59;15.90;99.90
10046;DHT22;5063;50.878;4.742;2023-07-20T01:32:29;15.90;99.90
10046;DHT22;5063;50.878;4.742;2023-07-20T01:34:56;16.00;99.90
10046;DHT22;5063;50.878;4.742;2023-07-20T01:37:24;16.00;99.90
10046;DHT22;5063;50.878;4.742;2023-07-20T01:39:54;16.00;99.90
10046;DHT22;5063;50.878;4.742;2023-07-20T01:42:23;16.00;99.90
10046;DHT22;5063;50.878;4.742;2023-07-20T01:44:52;16.00;99.90
10046;DHT22;5063;50.878;4.742;2023-07-20T01:47:19;15.90;99.90
10046;DHT22;5063;50.878;4.742;2023-07-20T01:49:45;15.80;99.90
10046;DHT22;5063;50.878;4.742;2023-07-20T01:52:11;15.70;99.90
10046;DHT22;5063;50.878;4.742;2023-07-20T01:54:36;15.80;99.90
10046;DHT22;5063;50.878;4.742;2023-07-20T01:57:02;15.80;99.90
10046;DHT22;5063;50.878;4.742;2023-07-20T01:59:28;15.80;99.90
10046;DHT22;5063;50.878;4.742;2023-07-20T02:01:54;15.80;99.90
10046;DHT22;5063;50.878;4.742;2023-07-20T02:04:20;15.80;99.90
10046;DHT22;5063;50.878;4.742;2023-07-20T02:06:45;15.70;99.90
10046;DHT22;5063;50.878;4.742;2023-07-20T02:09:11;15.70;99.90
10046;DHT22;5063;50.878;4.742;2023-07-20T02:11:37;15.60;99.90
10046;DHT22;5063;50.878;4.742;2023-07-20T02:14:02;15.50;99.90
10046;DHT22;5063;50.878;4.742;2023-07-20T02:16:28;15.40;99.90
10046;DHT22;5063;50.878;4.742;2023-07-20T02:18:54;15.30;99.90
10046;DHT22;5063;50.878;4.742;2023-07-20T02:21:22;15.30;99.90
10046;DHT22;5063;50.878;4.742;2023-07-20T02:23:48;15.30;99.90
10046;DHT22;5063;50.878;4.742;2023-07-20T02:26:14;15.30;99.90
10046;DHT22;5063;50.878;4.742;2023-07-20T02:28:40;15.30;99.90
10046;DHT22;5063;50.878;4.742;2023-07-20T02:31:07;15.30;99.90
10046;DHT22;5063;50.878;4.742;2023-07-20T02:33:32;15.30;99.90
10046;DHT22;5063;50.878;4.742;2023-07-20T02:35:58;15.30;99.90
10046;DHT22;5063;50.878;4.742;2023-07-20T02:38:24;15.20;99.90
10046;DHT22;5063;50.878;4.742;2023-07-20T02:40:50;15.20;99.90
10046;DHT22;5063;50.878;4.742;2023-07-20T02:43:16;15.20;99.90
10046;DHT22;5063;50.878;4.742;2023-07-20T02:45:43;15.20;99.90
10046;DHT22;5063;50.878;4.742;2023-07-20T02:48:09;15.20;99.90
10046;DHT22;5063;50.878;4.742;2023-07-20T02:50:35;15.20;99.90
10046;DHT22;5063;50.878;4.742;2023-07-20T02:53:01;15.30;99.90
10046;DHT22;5063;50.878;4.742;2023-07-20T02:55:27;15.30;99.90
10046;DHT22;5063;50.878;4.742;2023-07-20T02:57:52;15.30;99.90
10046;DHT22;5063;50.878;4.742;2023-07-20T03:00:18;15.20;99.90
10046;DHT22;5063;50.878;4.742;2023-07-20T03:02:46;15.20;99.90
10046;DHT22;5063;50.878;4.742;2023-07-20T03:05:18;15.00;99.90
10046;DHT22;5063;50.878;4.742;2023-07-20T03:07:44;15.00;99.90
10046;DHT22;5063;50.878;4.742;2023-07-20T03:10:10;14.90;99.90
10046;DHT22;5063;50.878;4.742;2023-07-20T03:12:36;14.80;99.90
10046;DHT22;5063;50.878;4.742;2023-07-20T03:15:02;14.70;99.90
10046;DHT22;5063;50.878;4.742;2023-07-20T03:17:28;14.70;99.90
10046;DHT22;5063;50.878;4.742;2023-07-20T03:19:54;14.60;99.90
10046;DHT22;5063;50.878;4.742;2023-07-20T03:22:20;14.60;99.90
10046;DHT22;5063;50.878;4.742;2023-07-20T03:24:47;14.50;99.90
10046;DHT22;5063;50.878;4.742;2023-07-20T03:27:13;14.50;99.90
10046;DHT22;5063;50.878;4.742;2023-07-20T03:29:38;14.50;99.90
10046;DHT22;5063;50.878;4.742;2023-07-20T03:32:05;14.50;99.90
10046;DHT22;5063;50.878;4.742;2023-07-20T03:34:31;14.60;99.90
10046;DHT22;5063;50.878;4.742;2023-07-20T03:36:57;14.60;99.90
10046;DHT22;5063;50.878;4.742;2023-07-20T03:39:23;14.70;99.90
10046;DHT22;5063;50.878;4.742;2023-07-20T03:41:48;14.80;99.90
10046;DHT22;5063;50.878;4.742;2023-07-20T03:44:14;14.90;99.90
10046;DHT22;5063;50.878;4.742;2023-07-20T03:46:40;14.90;99.90
10046;DHT22;5063;50.878;4.742;2023-07-20T03:49:06;15.00;99.90
10046;DHT22;5063;50.878;4.742;2023-07-20T03:51:32;15.00;99.90
10046;DHT22;5063;50.878;4.742;2023-07-20T03:53:58;15.00;99.90
10046;DHT22;5063;50.878;4.742;2023-07-20T03:56:23;15.10;99.90
10046;DHT22;5063;50.878;4.742;2023-07-20T03:58:50;15.20;99.90
10046;DHT22;5063;50.878;4.742;2023-07-20T04:01:16;15.30;99.90
10046;DHT22;5063;50.878;4.742;2023-07-20T04:03:44;15.40;99.90
10046;DHT22;5063;50.878;4.742;2023-07-20T04:06:10;15.50;99.90
10046;DHT22;5063;50.878;4.742;2023-07-20T04:08:36;15.60;99.90
10046;DHT22;5063;50.878;4.742;2023-07-20T04:11:04;15.60;99.90
10046;DHT22;5063;50.878;4.742;2023-07-20T04:13:30;15.70;99.90
10046;DHT22;5063;50.878;4.742;2023-07-20T04:16:00;15.70;99.90
10046;DHT22;5063;50.878;4.742;2023-07-20T04:18:26;15.70;99.90
10046;DHT22;5063;50.878;4.742;2023-07-20T04:20:51;15.80;99.90
10046;DHT22;5063;50.878;4.742;2023-07-20T04:23:17;15.90;99.90
10046;DHT22;5063;50.878;4.742;2023-07-20T04:25:44;16.00;99.90
10046;DHT22;5063;50.878;4.742;2023-07-20T04:28:09;16.00;99.90
10046;DHT22;5063;50.878;4.742;2023-07-20T04:30:39;16.10;99.90
10046;DHT22;5063;50.878;4.742;2023-07-20T04:33:06;16.20;99.90
10046;DHT22;5063;50.878;4.742;2023-07-20T04:35:51;16.30;99.90
10046;DHT22;5063;50.878;4.742;2023-07-20T04:38:18;16.40;99.90
10046;DHT22;5063;50.878;4.742;2023-07-20T04:40:45;16.40;99.90
10046;DHT22;5063;50.878;4.742;2023-07-20T04:43:11;16.60;99.90
10046;DHT22;5063;50.878;4.742;2023-07-20T04:45:37;16.70;99.90
10046;DHT22;5063;50.878;4.742;2023-07-20T04:48:03;16.70;99.90
10046;DHT22;5063;50.878;4.742;2023-07-20T04:50:28;16.90;99.90
10046;DHT22;5063;50.878;4.742;2023-07-20T04:52:54;16.90;99.90
10046;DHT22;5063;50.878;4.742;2023-07-20T04:55:20;16.90;99.90
10046;DHT22;5063;50.878;4.742;2023-07-20T04:57:46;16.90;99.90
10046;DHT22;5063;50.878;4.742;2023-07-20T05:00:12;16.90;99.90
10046;DHT22;5063;50.878;4.742;2023-07-20T05:02:38;16.80;99.90
10046;DHT22;5063;50.878;4.742;2023-07-20T05:05:04;16.80;99.90
10046;DHT22;5063;50.878;4.742;2023-07-20T05:07:33;16.90;99.90
10046;DHT22;5063;50.878;4.742;2023-07-20T05:09:59;16.90;99.90
10046;DHT22;5063;50.878;4.742;2023-07-20T05:12:24;17.10;99.90
10046;DHT22;5063;50.878;4.742;2023-07-20T05:14:50;17.20;99.90
10046;DHT22;5063;50.878;4.742;2023-07-20T05:17:16;17.30;99.90
10046;DHT22;5063;50.878;4.742;2023-07-20T05:19:42;17.20;99.90
10046;DHT22;5063;50.878;4.742;2023-07-20T05:22:07;17.30;99.90
10046;DHT22;5063;50.878;4.742;2023-07-20T05:24:33;17.40;99.90
10046;DHT22;5063;50.878;4.742;2023-07-20T05:26:59;17.40;99.90
10046;DHT22;5063;50.878;4.742;2023-07-20T05:29:25;17.40;99.90
10046;DHT22;5063;50.878;4.742;2023-07-20T05:31:50;17.40;99.90
10046;DHT22;5063;50.878;4.742;2023-07-20T05:34:16;17.40;99.90
10046;DHT22;5063;50.878;4.742;2023-07-20T05:36:42;17.40;99.90
10046;DHT22;5063;50.878;4.742;2023-07-20T05:39:08;17.40;99.90
10046;DHT22;5063;50.878;4.742;2023-07-20T05:41:34;17.40;99.90
10046;DHT22;5063;50.878;4.742;2023-07-20T05:44:00;17.30;99.90
10046;DHT22;5063;50.878;4.742;2023-07-20T05:46:25;17.30;99.90
10046;DHT22;5063;50.878;4.742;2023-07-20T05:48:51;17.40;99.90
10046;DHT22;5063;50.878;4.742;2023-07-20T05:51:17;17.40;99.90
10046;DHT22;5063;50.878;4.742;2023-07-20T05:53:43;17.40;99.90
10046;DHT22;5063;50.878;4.742;2023-07-20T05:56:08;17.50;99.90
10046;DHT22;5063;50.878;4.742;2023-07-20T05:58:37;17.70;99.90
10046;DHT22;5063;50.878;4.742;2023-07-20T06:01:03;17.90;99.90
10046;DHT22;5063;50.878;4.742;2023-07-20T06:03:31;18.00;99.90
10046;DHT22;5063;50.878;4.742;2023-07-20T06:06:02;18.20;99.90
10046;DHT22;5063;50.878;4.742;2023-07-20T06:08:28;18.20;99.90
10046;DHT22;5063;50.878;4.742;2023-07-20T06:10:54;17.90;99.90
10046;DHT22;5063;50.878;4.742;2023-07-20T06:13:21;18.00;99.90
10046;DHT22;5063;50.878;4.742;2023-07-20T06:15:47;18.20;99.90
10046;DHT22;5063;50.878;4.742;2023-07-20T06:18:13;18.40;99.90
10046;DHT22;5063;50.878;4.742;2023-07-20T06:20:39;18.30;99.90
10046;DHT22;5063;50.878;4.742;2023-07-20T06:23:05;18.50;99.90
10046;DHT22;5063;50.878;4.742;2023-07-20T06:25:31;18.60;99.90
10046;DHT22;5063;50.878;4.742;2023-07-20T06:27:56;18.70;99.90
10046;DHT22;5063;50.878;4.742;2023-07-20T06:30:22;18.80;99.90
10046;DHT22;5063;50.878;4.742;2023-07-20T06:32:48;18.60;99.90
10046;DHT22;5063;50.878;4.742;2023-07-20T06:35:15;18.60;99.90
10046;DHT22;5063;50.878;4.742;2023-07-20T06:37:41;18.60;99.90
10046;DHT22;5063;50.878;4.742;2023-07-20T06:40:07;18.50;99.90
10046;DHT22;5063;50.878;4.742;2023-07-20T06:42:35;18.50;99.90
10046;DHT22;5063;50.878;4.742;2023-07-20T06:45:01;18.60;99.90
10046;DHT22;5063;50.878;4.742;2023-07-20T06:47:27;18.70;99.90
10046;DHT22;5063;50.878;4.742;2023-07-20T06:49:52;19.00;99.90
10046;DHT22;5063;50.878;4.742;2023-07-20T06:52:18;19.10;99.90
10046;DHT22;5063;50.878;4.742;2023-07-20T06:54:44;19.30;99.90
10046;DHT22;5063;50.878;4.742;2023-07-20T06:57:10;19.50;99.90
10046;DHT22;5063;50.878;4.742;2023-07-20T06:59:36;20.10;99.90
10046;DHT22;5063;50.878;4.742;2023-07-20T07:02:01;20.70;99.90
10046;DHT22;5063;50.878;4.742;2023-07-20T07:04:27;21.00;99.90
10046;DHT22;5063;50.878;4.742;2023-07-20T07:06:53;20.70;99.90
10046;DHT22;5063;50.878;4.742;2023-07-20T07:09:19;20.20;99.90
10046;DHT22;5063;50.878;4.742;2023-07-20T07:11:46;20.20;99.90
10046;DHT22;5063;50.878;4.742;2023-07-20T07:14:12;20.00;99.90
10046;DHT22;5063;50.878;4.742;2023-07-20T07:16:38;20.60;99.90
10046;DHT22;5063;50.878;4.742;2023-07-20T07:19:04;20.90;99.90
10046;DHT22;5063;50.878;4.742;2023-07-20T07:21:31;20.80;99.90
10046;DHT22;5063;50.878;4.742;2023-07-20T07:23:57;20.80;99.90
10046;DHT22;5063;50.878;4.742;2023-07-20T07:26:23;21.00;99.90
10046;DHT22;5063;50.878;4.742;2023-07-20T07:28:49;21.00;99.90
10046;DHT22;5063;50.878;4.742;2023-07-20T07:31:15;21.00;99.90
10046;DHT22;5063;50.878;4.742;2023-07-20T07:33:41;21.20;99.90
10046;DHT22;5063;50.878;4.742;2023-07-20T07:36:07;21.50;99.90
10046;DHT22;5063;50.878;4.742;2023-07-20T07:38:33;21.70;99.90
10046;DHT22;5063;50.878;4.742;2023-07-20T07:40:59;22.40;99.90
10046;DHT22;5063;50.878;4.742;2023-07-20T07:43:25;23.10;99.90
10046;DHT22;5063;50.878;4.742;2023-07-20T07:45:54;24.20;99.90
10046;DHT22;5063;50.878;4.742;2023-07-20T07:48:20;25.20;99.90
10046;DHT22;5063;50.878;4.742;2023-07-20T07:50:46;24.90;99.90
10046;DHT22;5063;50.878;4.742;2023-07-20T07:53:12;25.20;99.90
10046;DHT22;5063;50.878;4.742;2023-07-20T07:55:38;25.00;99.90
10046;DHT22;5063;50.878;4.742;2023-07-20T07:58:04;24.90;99.90
10046;DHT22;5063;50.878;4.742;2023-07-20T08:00:30;24.90;99.90
10046;DHT22;5063;50.878;4.742;2023-07-20T08:02:56;24.50;99.90
10046;DHT22;5063;50.878;4.742;2023-07-20T08:05:22;24.70;99.90
10046;DHT22;5063;50.878;4.742;2023-07-20T08:07:48;25.30;99.90
10046;DHT22;5063;50.878;4.742;2023-07-20T08:10:14;25.40;99.90
10046;DHT22;5063;50.878;4.742;2023-07-20T08:12:40;25.60;99.90
10046;DHT22;5063;50.878;4.742;2023-07-20T08:15:06;26.00;99.90
10046;DHT22;5063;50.878;4.742;2023-07-20T08:17:32;26.50;99.90
10046;DHT22;5063;50.878;4.742;2023-07-20T08:19:59;27.10;99.90
10046;DHT22;5063;50.878;4.742;2023-07-20T08:22:25;27.10;99.90
10046;DHT22;5063;50.878;4.742;2023-07-20T08:24:51;27.30;99.90
10046;DHT22;5063;50.878;4.742;2023-07-20T08:27:17;28.00;99.90
10046;DHT22;5063;50.878;4.742;2023-07-20T08:29:43;28.00;97.20
10046;DHT22;5063;50.878;4.742;2023-07-20T08:32:09;27.60;98.60
10046;DHT22;5063;50.878;4.742;2023-07-20T08:34:35;26.60;99.90
10046;DHT22;5063;50.878;4.742;2023-07-20T08:37:01;25.80;99.90
10046;DHT22;5063;50.878;4.742;2023-07-20T08:39:27;25.20;99.90
10046;DHT22;5063;50.878;4.742;2023-07-20T08:41:54;24.50;99.90
10046;DHT22;5063;50.878;4.742;2023-07-20T08:44:20;24.20;99.90
10046;DHT22;5063;50.878;4.742;2023-07-20T08:46:47;23.90;99.90
10046;DHT22;5063;50.878;4.742;2023-07-20T08:49:16;23.90;99.90
10046;DHT22;5063;50.878;4.742;2023-07-20T08:51:46;24.10;99.90
10046;DHT22;5063;50.878;4.742;2023-07-20T08:54:13;24.40;99.90
10046;DHT22;5063;50.878;4.742;2023-07-20T08:56:43;24.70;99.90
10046;DHT22;5063;50.878;4.742;2023-07-20T08:59:12;25.10;99.90
10046;DHT22;5063;50.878;4.742;2023-07-20T09:01:39;25.20;99.90
10046;DHT22;5063;50.878;4.742;2023-07-20T09:04:06;26.40;99.90
10046;DHT22;5063;50.878;4.742;2023-07-20T09:06:32;26.20;99.90
10046;DHT22;5063;50.878;4.742;2023-07-20T09:09:00;25.30;99.90
10046;DHT22;5063;50.878;4.742;2023-07-20T09:11:26;25.20;99.90
10046;DHT22;5063;50.878;4.742;2023-07-20T09:14:06;24.90;99.90
10046;DHT22;5063;50.878;4.742;2023-07-20T09:16:50;24.60;99.90
10046;DHT22;5063;50.878;4.742;2023-07-20T09:19:16;24.40;99.90
10046;DHT22;5063;50.878;4.742;2023-07-20T09:21:51;23.80;99.90
10046;DHT22;5063;50.878;4.742;2023-07-20T09:24:18;23.50;99.90
10046;DHT22;5063;50.878;4.742;2023-07-20T09:26:46;23.00;99.90
10046;DHT22;5063;50.878;4.742;2023-07-20T09:29:16;23.20;99.90
10046;DHT22;5063;50.878;4.742;2023-07-20T09:31:58;23.70;99.90
10046;DHT22;5063;50.878;4.742;2023-07-20T09:34:26;25.40;99.90
10046;DHT22;5063;50.878;4.742;2023-07-20T09:36:52;27.20;99.90
10046;DHT22;5063;50.878;4.742;2023-07-20T09:39:19;28.60;99.90
10046;DHT22;5063;50.878;4.742;2023-07-20T09:41:46;28.90;96.80
10046;DHT22;5063;50.878;4.742;2023-07-20T09:44:14;30.10;94.90
10046;DHT22;5063;50.878;4.742;2023-07-20T09:46:50;30.90;91.40
10046;DHT22;5063;50.878;4.742;2023-07-20T09:49:19;29.70;89.50
10046;DHT22;5063;50.878;4.742;2023-07-20T09:51:46;28.90;91.10
10046;DHT22;5063;50.878;4.742;2023-07-20T09:54:13;27.90;93.20
10046;DHT22;5063;50.878;4.742;2023-07-20T09:56:40;27.40;94.20
10046;DHT22;5063;50.878;4.742;2023-07-20T09:59:08;27.00;94.80
10046;DHT22;5063;50.878;4.742;2023-07-20T10:01:34;26.40;95.90
10046;DHT22;5063;50.878;4.742;2023-07-20T10:04:03;26.10;99.90
10046;DHT22;5063;50.878;4.742;2023-07-20T10:06:32;25.90;99.90
10046;DHT22;5063;50.878;4.742;2023-07-20T10:09:03;26.20;99.40
10046;DHT22;5063;50.878;4.742;2023-07-20T10:11:35;26.50;98.20
10046;DHT22;5063;50.878;4.742;2023-07-20T10:14:04;26.60;99.50
10046;DHT22;5063;50.878;4.742;2023-07-20T10:16:39;26.70;99.30
10046;DHT22;5063;50.878;4.742;2023-07-20T10:19:22;26.50;99.90
10046;DHT22;5063;50.878;4.742;2023-07-20T10:21:56;26.10;97.90
10046;DHT22;5063;50.878;4.742;2023-07-20T10:24:23;26.00;98.40
10046;DHT22;5063;50.878;4.742;2023-07-20T10:26:50;25.20;99.30
10046;DHT22;5063;50.878;4.742;2023-07-20T10:29:16;25.20;99.90
10046;DHT22;5063;50.878;4.742;2023-07-20T10:31:43;25.20;99.90
10046;DHT22;5063;50.878;4.742;2023-07-20T10:34:10;25.00;99.90
10046;DHT22;5063;50.878;4.742;2023-07-20T10:36:44;25.20;97.70
10046;DHT22;5063;50.878;4.742;2023-07-20T10:39:26;25.60;99.90
10046;DHT22;5063;50.878;4.742;2023-07-20T10:42:10;25.90;97.00
10046;DHT22;5063;50.878;4.742;2023-07-20T10:44:45;26.30;96.20
10046;DHT22;5063;50.878;4.742;2023-07-20T10:47:13;26.30;96.80
10046;DHT22;5063;50.878;4.742;2023-07-20T10:50:01;26.50;97.40
10046;DHT22;5063;50.878;4.742;2023-07-20T10:52:37;26.00;96.20
10046;DHT22;5063;50.878;4.742;2023-07-20T10:55:16;26.40;94.30
10046;DHT22;5063;50.878;4.742;2023-07-20T10:57:42;26.40;95.30
10046;DHT22;5063;50.878;4.742;2023-07-20T11:00:10;26.30;95.90
10046;DHT22;5063;50.878;4.742;2023-07-20T11:02:44;26.40;96.40
10046;DHT22;5063;50.878;4.742;2023-07-20T11:05:33;26.80;95.30
10046;DHT22;5063;50.878;4.742;2023-07-20T11:08:38;27.00;95.50
10046;DHT22;5063;50.878;4.742;2023-07-20T11:11:23;27.20;94.90
10046;DHT22;5063;50.878;4.742;2023-07-20T11:14:02;27.40;95.50
10046;DHT22;5063;50.878;4.742;2023-07-20T11:19:03;27.70;93.40
10046;DHT22;5063;50.878;4.742;2023-07-20T11:21:36;27.60;92.80
10046;DHT22;5063;50.878;4.742;2023-07-20T11:24:04;27.40;92.60
10046;DHT22;5063;50.878;4.742;2023-07-20T11:26:39;26.60;91.40
10046;DHT22;5063;50.878;4.742;2023-07-20T11:29:04;26.50;93.30
10046;DHT22;5063;50.878;4.742;2023-07-20T11:31:30;26.80;93.80
10046;DHT22;5063;50.878;4.742;2023-07-20T11:33:56;26.40;95.50
10046;DHT22;5063;50.878;4.742;2023-07-20T11:36:22;26.10;96.30
10046;DHT22;5063;50.878;4.742;2023-07-20T11:38:48;25.60;96.20
10046;DHT22;5063;50.878;4.742;2023-07-20T11:41:13;25.60;98.90
10046;DHT22;5063;50.878;4.742;2023-07-20T11:43:40;25.50;99.90
10046;DHT22;5063;50.878;4.742;2023-07-20T11:46:07;24.70;99.90
10046;DHT22;5063;50.878;4.742;2023-07-20T11:48:33;24.60;99.90
10046;DHT22;5063;50.878;4.742;2023-07-20T11:50:59;24.30;99.90
10046;DHT22;5063;50.878;4.742;2023-07-20T11:53:25;24.20;99.90
10046;DHT22;5063;50.878;4.742;2023-07-20T11:55:52;24.10;99.90
10046;DHT22;5063;50.878;4.742;2023-07-20T11:58:18;24.00;99.90
10046;DHT22;5063;50.878;4.742;2023-07-20T12:00:44;24.00;99.90
10046;DHT22;5063;50.878;4.742;2023-07-20T12:03:12;23.90;99.90
10046;DHT22;5063;50.878;4.742;2023-07-20T12:05:38;24.00;99.90
10046;DHT22;5063;50.878;4.742;2023-07-20T12:08:04;24.20;99.90
10046;DHT22;5063;50.878;4.742;2023-07-20T12:10:30;24.60;99.90
10046;DHT22;5063;50.878;4.742;2023-07-20T12:13:05;24.60;99.90
10046;DHT22;5063;50.878;4.742;2023-07-20T12:15:31;25.10;99.90
10046;DHT22;5063;50.878;4.742;2023-07-20T12:18:01;25.30;99.90
10046;DHT22;5063;50.878;4.742;2023-07-20T12:20:32;25.60;99.90
10046;DHT22;5063;50.878;4.742;2023-07-20T12:23:04;25.90;99.90
10046;DHT22;5063;50.878;4.742;2023-07-20T12:25:40;25.30;99.90
10046;DHT22;5063;50.878;4.742;2023-07-20T12:28:14;25.30;99.90
10046;DHT22;5063;50.878;4.742;2023-07-20T12:30:41;25.60;99.90
10046;DHT22;5063;50.878;4.742;2023-07-20T12:33:07;25.90;99.80
10046;DHT22;5063;50.878;4.742;2023-07-20T12:35:34;26.10;98.10
10046;DHT22;5063;50.878;4.742;2023-07-20T12:37:59;25.80;97.40
10046;DHT22;5063;50.878;4.742;2023-07-20T12:40:26;26.00;97.20
10046;DHT22;5063;50.878;4.742;2023-07-20T12:42:52;26.20;96.50
10046;DHT22;5063;50.878;4.742;2023-07-20T12:45:18;26.70;94.90
10046;DHT22;5063;50.878;4.742;2023-07-20T12:47:43;26.70;95.10
10046;DHT22;5063;50.878;4.742;2023-07-20T12:50:10;26.20;93.80
10046;DHT22;5063;50.878;4.742;2023-07-20T12:52:37;25.80;94.90
10046;DHT22;5063;50.878;4.742;2023-07-20T12:55:07;25.80;96.40
10046;DHT22;5063;50.878;4.742;2023-07-20T12:57:37;25.70;96.70
10046;DHT22;5063;50.878;4.742;2023-07-20T13:00:04;26.10;96.50
10046;DHT22;5063;50.878;4.742;2023-07-20T13:02:32;26.30;96.20
10046;DHT22;5063;50.878;4.742;2023-07-20T13:04:59;26.60;94.90
10046;DHT22;5063;50.878;4.742;2023-07-20T13:07:33;26.70;92.00
10046;DHT22;5063;50.878;4.742;2023-07-20T13:09:59;26.60;92.90
10046;DHT22;5063;50.878;4.742;2023-07-20T13:12:27;26.60;91.70
10046;DHT22;5063;50.878;4.742;2023-07-20T13:14:54;26.70;92.20
10046;DHT22;5063;50.878;4.742;2023-07-20T13:17:19;27.00;92.40
10046;DHT22;5063;50.878;4.742;2023-07-20T13:19:45;27.10;89.40
10046;DHT22;5063;50.878;4.742;2023-07-20T13:22:12;26.60;90.40
10046;DHT22;5063;50.878;4.742;2023-07-20T13:24:39;26.90;91.00
10046;DHT22;5063;50.878;4.742;2023-07-20T13:27:05;27.20;91.30
10046;DHT22;5063;50.878;4.742;2023-07-20T13:29:31;27.60;90.00
10046;DHT22;5063;50.878;4.742;2023-07-20T13:31:57;27.70;86.90
10046;DHT22;5063;50.878;4.742;2023-07-20T13:34:23;27.30;82.30
10046;DHT22;5063;50.878;4.742;2023-07-20T13:36:49;26.80;83.80
10046;DHT22;5063;50.878;4.742;2023-07-20T13:39:15;26.20;85.10
10046;DHT22;5063;50.878;4.742;2023-07-20T13:41:41;26.00;88.20
10046;DHT22;5063;50.878;4.742;2023-07-20T13:44:07;26.10;90.20
10046;DHT22;5063;50.878;4.742;2023-07-20T13:46:33;26.10;90.70
10046;DHT22;5063;50.878;4.742;2023-07-20T13:48:59;26.10;90.40
10046;DHT22;5063;50.878;4.742;2023-07-20T13:51:25;26.10;90.40
10046;DHT22;5063;50.878;4.742;2023-07-20T13:53:51;26.10;91.10
10046;DHT22;5063;50.878;4.742;2023-07-20T13:56:17;26.20;90.70
10046;DHT22;5063;50.878;4.742;2023-07-20T13:58:43;25.80;88.10
10046;DHT22;5063;50.878;4.742;2023-07-20T14:01:09;25.30;89.30
10046;DHT22;5063;50.878;4.742;2023-07-20T14:03:34;24.90;91.10
10046;DHT22;5063;50.878;4.742;2023-07-20T14:06:00;24.90;91.90
10046;DHT22;5063;50.878;4.742;2023-07-20T14:08:26;24.80;92.80
10046;DHT22;5063;50.878;4.742;2023-07-20T14:10:52;24.60;93.90
10046;DHT22;5063;50.878;4.742;2023-07-20T14:13:17;24.60;93.80
10046;DHT22;5063;50.878;4.742;2023-07-20T14:15:43;24.30;95.10
10046;DHT22;5063;50.878;4.742;2023-07-20T14:18:09;24.50;96.20
10046;DHT22;5063;50.878;4.742;2023-07-20T14:20:35;24.80;96.40
10046;DHT22;5063;50.878;4.742;2023-07-20T14:23:01;24.80;95.50
10046;DHT22;5063;50.878;4.742;2023-07-20T14:25:26;24.50;94.90
10046;DHT22;5063;50.878;4.742;2023-07-20T14:27:52;24.30;96.40
10046;DHT22;5063;50.878;4.742;2023-07-20T14:30:18;24.40;98.00
10046;DHT22;5063;50.878;4.742;2023-07-20T14:32:44;24.60;97.70
10046;DHT22;5063;50.878;4.742;2023-07-20T14:35:09;24.60;97.40
10046;DHT22;5063;50.878;4.742;2023-07-20T14:37:35;24.90;97.30
10046;DHT22;5063;50.878;4.742;2023-07-20T14:40:01;25.20;97.30
10046;DHT22;5063;50.878;4.742;2023-07-20T14:42:30;25.20;96.50
10046;DHT22;5063;50.878;4.742;2023-07-20T14:44:58;25.10;95.60
10046;DHT22;5063;50.878;4.742;2023-07-20T14:47:23;24.80;95.80
10046;DHT22;5063;50.878;4.742;2023-07-20T14:49:49;24.90;95.70
10046;DHT22;5063;50.878;4.742;2023-07-20T14:52:15;24.80;95.80
10046;DHT22;5063;50.878;4.742;2023-07-20T14:54:41;24.40;96.30
10046;DHT22;5063;50.878;4.742;2023-07-20T14:57:07;24.30;98.10
10046;DHT22;5063;50.878;4.742;2023-07-20T14:59:39;24.50;98.80
10046;DHT22;5063;50.878;4.742;2023-07-20T15:02:07;24.60;99.10
10046;DHT22;5063;50.878;4.742;2023-07-20T15:04:33;24.60;97.60
10046;DHT22;5063;50.878;4.742;2023-07-20T15:06:59;25.10;97.30
10046;DHT22;5063;50.878;4.742;2023-07-20T15:09:25;25.60;96.30
10046;DHT22;5063;50.878;4.742;2023-07-20T15:11:51;26.50;93.60
10046;DHT22;5063;50.878;4.742;2023-07-20T15:14:16;26.80;92.00
10046;DHT22;5063;50.878;4.742;2023-07-20T15:16:42;26.70;91.80
10046;DHT22;5063;50.878;4.742;2023-07-20T15:19:09;26.60;92.30
10046;DHT22;5063;50.878;4.742;2023-07-20T15:21:35;26.80;91.40
10046;DHT22;5063;50.878;4.742;2023-07-20T15:24:00;27.10;90.20
10046;DHT22;5063;50.878;4.742;2023-07-20T15:26:26;27.10;90.20
10046;DHT22;5063;50.878;4.742;2023-07-20T15:28:52;27.30;90.20
10046;DHT22;5063;50.878;4.742;2023-07-20T15:31:18;27.60;90.30
10046;DHT22;5063;50.878;4.742;2023-07-20T15:33:43;27.40;88.10
10046;DHT22;5063;50.878;4.742;2023-07-20T15:36:09;26.70;90.50
10046;DHT22;5063;50.878;4.742;2023-07-20T15:38:35;26.30;90.90
10046;DHT22;5063;50.878;4.742;2023-07-20T15:41:01;26.50;91.10
10046;DHT22;5063;50.878;4.742;2023-07-20T15:43:27;26.10;91.40
10046;DHT22;5063;50.878;4.742;2023-07-20T15:48:42;25.70;92.90
10046;DHT22;5063;50.878;4.742;2023-07-20T15:51:08;25.20;93.10
10046;DHT22;5063;50.878;4.742;2023-07-20T15:53:33;25.20;93.80
10046;DHT22;5063;50.878;4.742;2023-07-20T15:55:59;25.00;93.80
10046;DHT22;5063;50.878;4.742;2023-07-20T15:58:25;24.80;94.60
10046;DHT22;5063;50.878;4.742;2023-07-20T16:00:57;24.60;95.30